Data for 06/05/2015

Time Sea-Level Adjusted Pressure Absolute Pressure Temperature Relative Humidity Dew Point   
(mb) (inHg) (mb) (inHg) (C) (F) (%) (C) (F)
00:05 1020 30.12 849 25.07 11.4 52.5 77 7.5 45.5
00:10 1020 30.12 849 25.07 10.9 51.6 79 7.3 45.2
00:15 1020 30.12 849 25.07 10.5 50.9 79 7.1 44.7
00:20 1020 30.12 849 25.07 10.4 50.8 80 7.1 44.7
00:25 1020 30.12 849 25.07 10.4 50.7 79 7 44.6
00:30 1020 30.12 849 25.07 10.5 50.8 79 7 44.7
00:35 1020 30.12 849 25.07 10.6 51 80 7.3 45.1
00:40 1020 30.12 849 25.07 10.7 51.3 81 7.6 45.6
00:45 1020 30.12 849 25.07 10.9 51.6 82 7.9 46.2
00:50 1020 30.12 849 25.07 11.1 52 81 8.1 46.6
00:55 1020 30.12 849 25.07 11.4 52.4 81 8.2 46.8
01:00 1020 30.12 849 25.07 11.4 52.5 81 8.2 46.8
01:05 1020 30.12 849 25.07 11.5 52.7 80 8.2 46.8
01:10 1020 30.12 849 25.07 12.3 54.1 78 8.5 47.4
01:15 1020 30.12 849 25.07 12.9 55.2 76 8.7 47.7
01:20 1020 30.12 849 25.07 13.2 55.7 75 8.8 47.9
01:25 1020 30.12 850 25.1 13.3 55.9 74 8.9 48
01:30 1020 30.12 849 25.07 13.4 56 74 8.9 48
01:35 1020 30.12 849 25.07 13.3 56 73 8.7 47.6
01:40 1020 30.12 850 25.1 13.3 55.9 72 8.3 47
01:45 1020 30.12 850 25.1 13.2 55.7 71 8.2 46.7
01:50 1020 30.12 850 25.1 13.1 55.6 71 8 46.4
01:55 1020 30.12 850 25.1 13 55.4 71 7.9 46.3
02:00 1020 30.12 850 25.1 12.9 55.2 71 7.8 46.1
02:05 1020 30.12 849 25.07 12.8 55 72 7.8 46
02:10 1020 30.12 849 25.07 12.7 54.8 72 7.8 46.1
02:15 1020 30.12 849 25.07 12.6 54.6 73 7.8 46
02:20 1020 30.12 849 25.07 12.5 54.4 73 7.7 45.9
02:25 1020 30.12 849 25.07 12.4 54.4 72 7.6 45.7
02:30 1020 30.12 850 25.1 12.4 54.3 72 7.5 45.5
02:35 1020 30.12 850 25.1 12.4 54.2 72 7.5 45.4
02:40 1020 30.12 849 25.07 12.3 54.1 73 7.6 45.6
02:45 1020 30.12 849 25.07 12.2 54 73 7.5 45.6
02:50 1020 30.12 849 25.07 12.1 53.9 73 7.4 45.4
02:55 1020 30.12 849 25.07 12 53.6 74 7.6 45.6
03:00 1020 30.12 849 25.07 11.8 53.2 75 7.5 45.5
03:05 1020 30.12 849 25.07 11.7 53.1 75 7.4 45.3
03:10 1020 30.12 849 25.07 11.8 53.2 74 7.3 45.2
03:15 1020 30.12 849 25.07 12 53.6 74 7.5 45.5
03:20 1020 30.12 849 25.07 12 53.6 74 7.6 45.6
03:25 1020 30.12 849 25.07 12.1 53.7 75 7.7 45.9
03:30 1020 30.12 849 25.07 12 53.6 76 7.9 46.3
03:35 1020 30.12 849 25.07 12 53.5 77 8 46.4
03:40 1020 30.12 849 25.07 12 53.6 77 8.2 46.7
03:45 1020 30.12 849 25.07 12.1 53.8 78 8.3 47
03:50 1020 30.12 849 25.07 12.2 54 77 8.4 47.1
03:55 1020 30.12 849 25.07 12.3 54.1 77 8.4 47.2
04:00 1020 30.12 849 25.07 12.3 54.1 77 8.4 47.2
04:05 1020 30.12 849 25.07 12.2 54 77 8.4 47.1
04:10 1020 30.12 849 25.07 12.2 53.9 78 8.5 47.3
04:15 1020 30.12 849 25.07 12.1 53.8 78 8.5 47.2
04:20 1021 30.15 850 25.1 12.2 53.9 78 8.4 47.1
04:25 1021 30.15 850 25.1 12.3 54.2 77 8.5 47.3
04:30 1020 30.12 850 25.1 12.3 54.1 78 8.5 47.3
04:35 1020 30.12 849 25.07 12.3 54.2 78 8.6 47.5
04:40 1020 30.12 849 25.07 12.4 54.3 79 8.8 47.9
04:45 1020 30.12 850 25.1 12.4 54.4 79 9 48.2
04:50 1021 30.15 850 25.1 12 53.6 76 7.9 46.3
04:55 1021 30.15 850 25.1 11.4 52.5 80 8.1 46.5
05:00 1020 30.12 849 25.07 11.5 52.7 80 8.2 46.8
05:05 1021 30.15 850 25.1 11.6 52.8 81 8.4 47.1
05:10 1021 30.15 850 25.1 11.4 52.6 81 8.4 47
05:15 1020 30.12 850 25.1 11.5 52.6 82 8.5 47.3
05:20 1020 30.12 849 25.07 11.5 52.7 83 8.7 47.7
05:25 1020 30.12 849 25.07 11.4 52.5 83 8.6 47.5
05:30 1020 30.12 849 25.07 11.4 52.5 80 8.2 46.7
05:35 1020 30.12 849 25.07 11.5 52.7 80 8.2 46.7
05:40 1020 30.12 849 25.07 11.5 52.7 79 7.9 46.3
05:45 1020 30.12 849 25.07 11.4 52.6 79 8 46.4
05:50 1020 30.12 849 25.07 11.5 52.6 78 7.8 46.1
05:55 1020 30.12 849 25.07 11.6 52.9 77 7.7 45.8
06:00 1020 30.12 849 25.07 11.6 52.9 77 7.7 45.9
06:05 1020 30.12 849 25.07 11.7 53.1 76 7.7 45.9
06:10 1020 30.12 849 25.07 11.6 52.9 78 8 46.4
06:15 1020 30.12 849 25.07 12.1 53.7 77 8.2 46.7
06:20 1020 30.12 849 25.07 12.2 54 77 8.3 46.9
06:25 1020 30.12 849 25.07 12.2 54 75 8 46.4
06:30 1020 30.12 849 25.07 12.4 54.3 73 7.8 46.1
06:35 1020 30.12 850 25.1 12.3 54.2 73 7.6 45.7
06:40 1020 30.12 850 25.1 12.3 54.1 72 7.4 45.3
06:45 1020 30.12 850 25.1 12.3 54.2 72 7.4 45.4
06:50 1020 30.12 850 25.1 12.3 54.1 71 7.1 44.8
06:55 1020 30.12 850 25.1 12.5 54.4 70 7.2 45
07:00 1020 30.12 850 25.1 12.7 54.8 73 7.9 46.2
07:05 1020 30.12 850 25.1 12.3 54.1 75 8 46.4
07:10 1020 30.12 850 25.1 12.5 54.5 73 7.8 46
07:15 1020 30.12 850 25.1 12.6 54.7 73 7.9 46.1
07:20 1020 30.12 849 25.07 12.8 55 70 7.5 45.5
07:25 1020 30.12 849 25.07 12.8 55 71 7.7 45.8
07:30 1020 30.12 849 25.07 12.4 54.3 73 7.8 46.1
07:35 1020 30.12 849 25.07 12 53.5 75 7.7 45.9
07:40 1020 30.12 849 25.07 12.3 54.1 74 7.7 45.9
07:45 1020 30.12 849 25.07 12.5 54.4 73 7.8 46
07:50 1020 30.12 850 25.1 12.5 54.5 73 7.8 46.1
07:55 1020 30.12 849 25.07 12.8 55 70 7.6 45.6
08:00 1020 30.12 849 25.07 13.4 56 70 8 46.5
08:05 1020 30.12 849 25.07 13.4 56.1 69 7.8 46.1
08:10 1020 30.12 849 25.07 13.7 56.6 67 7.8 46
08:15 1020 30.12 849 25.07 13.9 57 66 7.7 45.9
08:20 1020 30.12 849 25.07 14.2 57.6 65 7.8 46.1
08:25 1020 30.12 849 25.07 14.2 57.6 65 7.7 45.9
08:30 1020 30.12 850 25.1 14.3 57.8 65 7.9 46.2
08:35 1021 30.15 850 25.1 14.5 58.2 64 7.8 46.1
08:40 1021 30.15 850 25.1 14.7 58.5 63 7.9 46.3
08:45 1021 30.15 850 25.1 14.7 58.4 63 7.8 46.1
08:50 1021 30.15 850 25.1 14.6 58.2 64 8 46.4
08:55 1020 30.12 850 25.1 14.7 58.4 64 8 46.3
09:00 1021 30.15 850 25.1 15.2 59.4 63 8.3 46.9
09:05 1020 30.12 850 25.1 15 59 63 8.1 46.6
09:10 1021 30.15 850 25.1 14.7 58.4 63 7.8 46.1
09:15 1021 30.15 850 25.1 14.7 58.5 63 7.8 46.1
09:20 1020 30.12 850 25.1 15.1 59.2 60 7.6 45.7
09:25 1020 30.12 850 25.1 16 60.7 59 8 46.4
09:30 1020 30.12 850 25.1 16.3 61.4 58 8.2 46.7
09:35 1020 30.12 850 25.1 16.7 62.1 57 8.2 46.7
09:40 1020 30.12 850 25.1 17.2 63 56 8.5 47.3
09:45 1020 30.12 850 25.1 17.1 62.8 56 8.5 47.2
09:50 1020 30.12 850 25.1 17.3 63.2 58 9.1 48.3
09:55 1020 30.12 850 25.1 17.1 62.7 56 8.2 46.8
10:00 1020 30.12 850 25.1 17.1 62.7 55 8.1 46.6
10:05 1020 30.12 850 25.1 16.8 62.2 57 8.2 46.7
10:10 1020 30.12 849 25.07 17.3 63.1 53 7.7 45.9
10:15 1020 30.12 849 25.07 17.7 63.9 54 8.5 47.3
10:20 1020 30.12 849 25.07 18.3 64.9 52 8.3 47
10:25 1020 30.12 849 25.07 18.2 64.8 54 8.8 47.8
10:30 1020 30.12 849 25.07 17.9 64.1 53 8.2 46.8
10:35 1020 30.12 849 25.07 18.4 65.1 52 8.3 47
10:40 1020 30.12 849 25.07 18.2 64.8 54 9 48.2
10:45 1020 30.12 849 25.07 18.9 65.9 51 8.7 47.7
10:50 1020 30.12 849 25.07 19.1 66.4 51 8.7 47.7
10:55 1020 30.12 849 25.07 19 66.1 51 8.6 47.6
11:00 1020 30.12 849 25.07 19.6 67.2 51 9.3 48.7
11:05 1020 30.12 849 25.07 19.1 66.3 51 8.9 48.1
11:10 1020 30.12 849 25.07 18.9 66.1 51 8.7 47.6
11:15 1020 30.12 849 25.07 19.8 67.7 49 9 48.2
11:20 1020 30.12 849 25.07 20.2 68.3 49 9.1 48.4
11:25 1020 30.12 849 25.07 20.4 68.8 47 8.8 47.8
11:30 1020 30.12 849 25.07 20.4 68.7 50 9.9 49.7
11:35 1020 30.12 849 25.07 19.6 67.2 52 9.4 49
11:40 1020 30.12 849 25.07 20.1 68.2 48 8.9 48
11:45 1020 30.12 849 25.07 19.8 67.6 49 9 48.2
11:50 1019 30.09 849 25.07 20.8 69.5 47 9.3 48.7
11:55 1019 30.09 849 25.07 20.5 68.8 50 9.7 49.5
12:00 1019 30.09 849 25.07 20 68 53 10.1 50.3
12:05 1019 30.09 849 25.07 20.2 68.4 50 9.7 49.4
12:10 1019 30.09 849 25.07 20 68 50 9.3 48.7
12:15 1019 30.09 848 25.04 20.4 68.7 52 10.3 50.5
12:20 1019 30.09 848 25.04 19.3 66.7 53 9.6 49.3
12:25 1019 30.09 848 25.04 19.3 66.8 53 9.7 49.5
12:30 1019 30.09 848 25.04 19.7 67.5 51 9.3 48.8
12:35 1019 30.09 848 25.04 20.9 69.5 49 9.8 49.6
12:40 1019 30.09 848 25.04 21.4 70.5 47 9.9 49.7
12:45 1019 30.09 848 25.04 21.2 70.1 48 9.8 49.6
12:50 1019 30.09 848 25.04 20.8 69.4 48 9.5 49.2
12:55 1019 30.09 848 25.04 20.9 69.6 48 9.7 49.5
13:00 1019 30.09 848 25.04 20.6 69 51 10.3 50.6
13:05 1019 30.09 848 25.04 19.9 67.8 52 10 50
13:10 1019 30.09 848 25.04 20 68.1 52 10.1 50.2
13:15 1019 30.09 848 25.04 20 67.9 51 9.6 49.3
13:20 1019 30.09 848 25.04 20.3 68.6 52 10.2 50.4
13:25 1019 30.09 848 25.04 19.7 67.5 53 10 50
13:30 1019 30.09 848 25.04 20.1 68.3 51 9.8 49.7
13:35 1019 30.09 848 25.04 20.3 68.5 51 9.9 49.8
13:40 1019 30.09 848 25.04 19.5 67.1 52 9.6 49.2
13:45 1019 30.09 848 25.04 19.5 67.1 51 9.2 48.6
13:50 1018 30.06 848 25.04 19.8 67.7 50 9.2 48.5
13:55 1018 30.06 848 25.04 19.5 67.1 51 9.2 48.6
14:00 1018 30.06 848 25.04 19.3 66.7 52 9.4 49
14:05 1018 30.06 848 25.04 19.7 67.4 51 9.4 48.8
14:10 1018 30.06 848 25.04 19.6 67.3 51 9.2 48.6
14:15 1018 30.06 848 25.04 19.3 66.8 51 9.2 48.5
14:20 1018 30.06 848 25.04 19.4 67 51 9.2 48.6
14:25 1018 30.06 848 25.04 19.3 66.8 51 9.1 48.3
14:30 1018 30.06 848 25.04 19.3 66.8 52 9.3 48.7
14:35 1018 30.06 848 25.04 19.3 66.7 52 9.2 48.6
14:40 1018 30.06 847 25.01 19.2 66.5 53 9.5 49.1
14:45 1018 30.06 847 25.01 19.1 66.4 53 9.4 49
14:50 1018 30.06 847 25.01 19 66.2 53 9.4 49
14:55 1018 30.06 847 25.01 19.2 66.6 54 9.7 49.5
15:00 1018 30.06 847 25.01 19 66.1 55 9.8 49.6
15:05 1018 30.06 847 25.01 18.8 65.8 56 10 49.9
15:10 1018 30.06 847 25.01 18.8 65.8 55 9.6 49.3
15:15 1018 30.06 847 25.01 18.7 65.7 56 9.9 49.9
15:20 1018 30.06 847 25.01 18.7 65.7 55 9.7 49.4
15:25 1018 30.06 847 25.01 18.5 65.3 56 9.8 49.6
15:30 1018 30.06 847 25.01 18.4 65.1 56 9.6 49.3
15:35 1018 30.06 848 25.04 18.4 65.1 56 9.6 49.3
15:40 1018 30.06 848 25.04 18.5 65.2 57 9.8 49.6
15:45 1018 30.06 848 25.04 18.5 65.2 55 9.4 49
15:50 1018 30.06 848 25.04 18.4 65.1 57 9.7 49.5
15:55 1019 30.09 848 25.04 18.3 65 57 9.7 49.5
16:00 1019 30.09 848 25.04 18.4 65.1 57 9.7 49.5
16:05 1018 30.06 848 25.04 18.4 65 57 9.7 49.5
16:10 1018 30.06 848 25.04 18.3 64.9 57 9.7 49.4
16:15 1018 30.06 848 25.04 18.3 64.9 57 9.8 49.7
16:20 1018 30.06 848 25.04 18.3 64.9 57 9.8 49.6
16:25 1018 30.06 848 25.04 18.4 65.1 57 9.9 49.8
16:30 1018 30.06 848 25.04 18.5 65.2 57 9.9 49.9
16:35 1018 30.06 848 25.04 18.3 65 59 10.4 50.6
16:40 1018 30.06 848 25.04 18.3 64.9 59 10.1 50.2
16:45 1018 30.06 848 25.04 18.2 64.7 59 10 50
16:50 1018 30.06 847 25.01 18.1 64.7 59 10 50
16:55 1018 30.06 847 25.01 18.1 64.7 59 10 50
17:00 1018 30.06 847 25.01 18.1 64.5 58 9.8 49.6
17:05 1018 30.06 847 25.01 18.1 64.6 59 10 49.9
17:10 1018 30.06 847 25.01 18 64.4 59 10 50
17:15 1018 30.06 847 25.01 17.9 64.2 59 9.9 49.9
17:20 1018 30.06 847 25.01 18 64.3 52 8 46.3
17:25 1018 30.06 847 25.01 18.1 64.5 48 7.1 44.9
17:30 1018 30.06 847 25.01 18.1 64.5 49 7.2 45
17:35 1018 30.06 847 25.01 18 64.3 46 6.3 43.3
17:40 1018 30.06 847 25.01 17.9 64.2 46 6.2 43.1
17:45 1018 30.06 847 25.01 17.8 64 45 5.7 42.2
17:50 1018 30.06 847 25.01 17.6 63.7 45 5.5 41.9
17:55 1018 30.06 847 25.01 17.5 63.4 45 5.4 41.8
18:00 1018 30.06 847 25.01 17.5 63.4 45 5.4 41.7
18:05 1018 30.06 847 25.01 17.4 63.3 44 5.1 41.2
18:10 1018 30.06 847 25.01 17.4 63.3 44 5.1 41.1
18:15 1018 30.06 847 25.01 17.4 63.3 43 4.9 40.8
18:20 1018 30.06 847 25.01 17.3 63.1 44 5.1 41.2
18:25 1018 30.06 847 25.01 17.2 63 43 4.8 40.6
18:30 1018 30.06 847 25.01 17.3 63.1 43 4.7 40.5
18:35 1018 30.06 847 25.01 17.2 63 44 5 40.9
18:40 1018 30.06 847 25.01 17.2 63 44 5 41.1
18:45 1018 30.06 847 25.01 17.2 62.9 45 5.4 41.7
18:50 1018 30.06 847 25.01 17 62.5 46 5.4 41.7
18:55 1018 30.06 847 25.01 16.9 62.3 46 5.4 41.7
19:00 1018 30.06 847 25.01 16.8 62.2 46 5.3 41.5
19:05 1018 30.06 847 25.01 16.8 62.2 47 5.4 41.6
19:10 1018 30.06 847 25.01 16.7 62 48 5.7 42.2
19:15 1018 30.06 847 25.01 16.6 61.9 48 5.5 42
19:20 1018 30.06 847 25.01 16.6 62 47 5.4 41.6
19:25 1018 30.06 847 25.01 16.8 62.2 45 4.8 40.6
19:30 1018 30.06 847 25.01 16.9 62.5 45 4.9 40.9
19:35 1018 30.06 847 25.01 17.1 62.7 46 5.6 42
19:40 1018 30.06 847 25.01 17 62.6 49 6.3 43.3
19:45 1018 30.06 847 25.01 16.9 62.4 49 6.3 43.4
19:50 1018 30.06 847 25.01 16.7 62.1 50 6.3 43.4
19:55 1018 30.06 848 25.04 16.6 61.9 49 6.1 43
20:00 1018 30.06 848 25.04 16.6 61.9 49 6.1 43
20:05 1018 30.06 848 25.04 16.5 61.6 49 5.9 42.6
20:10 1019 30.09 848 25.04 16.4 61.5 51 6.3 43.3
20:15 1019 30.09 848 25.04 16.2 61.2 53 6.7 44.1
20:20 1019 30.09 848 25.04 15.7 60.2 55 6.8 44.3
20:25 1019 30.09 848 25.04 15.3 59.5 57 6.9 44.4
20:30 1019 30.09 848 25.04 15.1 59.2 57 6.8 44.2
20:35 1019 30.09 848 25.04 15.1 59.2 57 6.7 44.1
20:40 1019 30.09 848 25.04 14.8 58.6 54 5.6 42.1
20:45 1019 30.09 848 25.04 15.1 59.1 61 7.7 45.8
20:50 1019 30.09 848 25.04 15.3 59.5 58 7.1 44.7
20:55 1019 30.09 848 25.04 15.3 59.6 57 6.9 44.5
21:00 1019 30.09 848 25.04 15.5 59.8 60 7.7 45.8
21:05 1019 30.09 848 25.04 15.5 60 60 7.9 46.1
21:10 1019 30.09 848 25.04 15.5 59.8 61 8.1 46.6
21:15 1019 30.09 848 25.04 15.1 59.2 60 7.5 45.6
21:20 1019 30.09 848 25.04 15.1 59.2 59 7.3 45.1
21:25 1019 30.09 848 25.04 14.9 58.9 56 6.3 43.3
21:30 1019 30.09 848 25.04 14.6 58.3 56 6 42.9
21:35 1019 30.09 848 25.04 14.4 57.9 57 6.1 43
21:40 1019 30.09 848 25.04 14.4 57.8 58 6.2 43.2
21:45 1019 30.09 848 25.04 14.3 57.8 58 6.3 43.3
21:50 1019 30.09 848 25.04 14.2 57.5 59 6.4 43.5
21:55 1019 30.09 848 25.04 14 57.2 61 6.7 44
22:00 1019 30.09 848 25.04 14 57.2 59 6.3 43.3
22:05 1019 30.09 848 25.04 13.9 57 59 6.2 43.1
22:10 1019 30.09 848 25.04 14 57.2 59 6.3 43.3
22:15 1019 30.09 848 25.04 14 57.1 60 6.3 43.4
22:20 1019 30.09 848 25.04 13.8 56.9 60 6.3 43.4
22:25 1019 30.09 848 25.04 13.7 56.7 59 5.8 42.4
22:30 1019 30.09 848 25.04 13.5 56.3 60 5.9 42.6
22:35 1019 30.09 848 25.04 13.4 56 63 6.4 43.6
22:40 1019 30.09 848 25.04 13.2 55.8 62 6.1 43
22:45 1019 30.09 848 25.04 13.3 56 60 5.8 42.4
22:50 1019 30.09 848 25.04 13.6 56.5 59 5.8 42.5
22:55 1019 30.09 848 25.04 13.8 56.8 62 6.6 43.8
23:00 1019 30.09 848 25.04 13.8 56.8 63 6.8 44.2
23:05 1019 30.09 848 25.04 13.7 56.6 63 6.9 44.5
23:10 1019 30.09 848 25.04 13.6 56.4 64 6.9 44.4
23:15 1019 30.09 848 25.04 13.5 56.4 63 6.6 43.9
23:20 1019 30.09 848 25.04 13.7 56.7 64 7.1 44.7
23:25 1019 30.09 848 25.04 13.4 56.2 64 6.8 44.3
23:30 1019 30.09 848 25.04 13.1 55.6 65 6.8 44.2
23:35 1019 30.09 848 25.04 13.1 55.7 66 7 44.6
23:40 1019 30.09 848 25.04 12.7 54.9 69 7.3 45.1
23:45 1019 30.09 848 25.04 12.3 54.2 70 6.9 44.5
23:50 1019 30.09 848 25.04 12.2 54 70 7 44.6
23:55 1019 30.09 848 25.04 12 53.6 70 6.7 44.1
24:00 1019 30.09 848 25.04 11.8 53.2 71 6.7 44